PWSweather.com
Personal Weather Stations
Station Observations
KNCCHINA3
Red Tractor Trail, China Grove, NC 28023

Red Tractor TrailChina Grove, NC 28023

Lat: 35.59751, Lon: -80.60201

Elevation: 800

Station Type: Oregon Scientific WMR 968

http://www.joesweathergarage.com

High Low Average
Temperature 74.6°F23.7°C 51.5°F10.8°C 60.1°F15.6°C
Dew Point 61.4°F16.3°C 49.9°F9.9°C 53.8°F12.1°C
Winds 9.8 mph 15.8 kmh Calm Calm 1.0 mph SE1.6 kmh SE
Wind Gusts 12.0 mph19.3 kmh -- 3.0 mph4.8 kmh
Humidity 98% 46% 83%
Pressure 29.85 in1010.8 mb 29.77 in1008.1 mb -
Precipitation 0.04 in1.0 mm - -
Hour Temp Dew Point Humidity Winds Wind Gusts Pressure Precip Precip Rate Daily Precip Total
12:03 AM 55.7°F13.2°C 55.0°F12.8°C 98% Calm Calm -- 29.80 in1009.1 mb 0.00 in0.0 mm 0.00 in0.0 mm 0.00 in0.0 mm
12:08 AM 55.5°F13.1°C 54.8°F12.7°C 98% Calm Calm -- 29.80 in1009.1 mb 0.00 in0.0 mm 0.00 in0.0 mm 0.00 in0.0 mm
12:14 AM 55.1°F12.8°C 54.4°F12.4°C 98% Calm Calm -- 29.80 in1009.1 mb 0.00 in0.0 mm 0.00 in0.0 mm 0.00 in0.0 mm
12:19 AM 54.9°F12.7°C 54.2°F12.3°C 98% Calm Calm -- 29.77 in1008.1 mb 0.00 in0.0 mm 0.00 in0.0 mm 0.00 in0.0 mm
12:24 AM 54.8°F12.7°C 54.1°F12.3°C 98% Calm Calm -- 29.77 in1008.1 mb 0.00 in0.0 mm 0.00 in0.0 mm 0.00 in0.0 mm
12:29 AM 54.6°F12.6°C 53.9°F12.2°C 98% Calm Calm -- 29.77 in1008.1 mb 0.00 in0.0 mm 0.00 in0.0 mm 0.00 in0.0 mm
12:34 AM 54.4°F12.4°C 53.7°F12.1°C 98% Calm Calm -- 29.80 in1009.1 mb 0.00 in0.0 mm 0.00 in0.0 mm 0.00 in0.0 mm
12:39 AM 54.4°F12.4°C 53.7°F12.1°C 98% Calm Calm -- 29.80 in1009.1 mb 0.00 in0.0 mm 0.00 in0.0 mm 0.00 in0.0 mm
12:44 AM 54.4°F12.4°C 53.7°F12.1°C 98% Calm Calm -- 29.80 in1009.1 mb 0.00 in0.0 mm 0.00 in0.0 mm 0.00 in0.0 mm
12:49 AM 54.4°F12.4°C 53.7°F12.1°C 98% Calm Calm -- 29.77 in1008.1 mb 0.00 in0.0 mm 0.00 in0.0 mm 0.00 in0.0 mm
12:55 AM 54.0°F12.2°C 53.3°F11.8°C 98% Calm Calm -- 29.77 in1008.1 mb 0.00 in0.0 mm 0.00 in0.0 mm 0.00 in0.0 mm
01:00 AM 53.9°F12.2°C 53.2°F11.8°C 98% Calm Calm -- 29.77 in1008.1 mb 0.00 in0.0 mm 0.00 in0.0 mm 0.00 in0.0 mm
01:05 AM 53.9°F12.2°C 53.2°F11.8°C 98% Calm Calm -- 29.77 in1008.1 mb 0.00 in0.0 mm 0.00 in0.0 mm 0.00 in0.0 mm
01:10 AM 53.7°F12.1°C 53.0°F11.7°C 98% Calm Calm -- 29.77 in1008.1 mb 0.00 in0.0 mm 0.00 in0.0 mm 0.00 in0.0 mm
01:16 AM 53.3°F11.8°C 52.6°F11.4°C 98% Calm Calm -- 29.77 in1008.1 mb 0.00 in0.0 mm 0.00 in0.0 mm 0.00 in0.0 mm
01:21 AM 53.1°F11.7°C 52.4°F11.3°C 98% Calm Calm -- 29.83 in1010.2 mb 0.00 in0.0 mm 0.00 in0.0 mm 0.00 in0.0 mm
01:27 AM 53.0°F11.7°C 52.3°F11.3°C 98% Calm Calm -- 29.83 in1010.2 mb 0.00 in0.0 mm 0.00 in0.0 mm 0.00 in0.0 mm
01:32 AM 53.0°F11.7°C 52.3°F11.3°C 98% Calm Calm -- 29.83 in1010.2 mb 0.00 in0.0 mm 0.00 in0.0 mm 0.00 in0.0 mm
01:38 AM 53.0°F11.7°C 52.3°F11.3°C 98% Calm Calm 2.6 mph4.2 kmh 29.80 in1009.1 mb 0.00 in0.0 mm 0.00 in0.0 mm 0.00 in0.0 mm
01:43 AM 52.8°F11.6°C 52.1°F11.2°C 98% Calm Calm 2.6 mph4.2 kmh 29.80 in1009.1 mb 0.00 in0.0 mm 0.00 in0.0 mm 0.00 in0.0 mm
01:48 AM 52.8°F11.6°C 52.1°F11.2°C 98% Calm Calm -- 29.80 in1009.1 mb 0.00 in0.0 mm 0.00 in0.0 mm 0.00 in0.0 mm
01:53 AM 52.8°F11.6°C 52.1°F11.2°C 98% Calm Calm -- 29.80 in1009.1 mb 0.00 in0.0 mm 0.00 in0.0 mm 0.00 in0.0 mm
01:58 AM 52.8°F11.6°C 52.1°F11.2°C 98% Calm Calm -- 29.80 in1009.1 mb 0.00 in0.0 mm 0.00 in0.0 mm 0.00 in0.0 mm
02:03 AM 52.6°F11.4°C 51.9°F11.1°C 98% Calm Calm -- 29.80 in1009.1 mb 0.00 in0.0 mm 0.00 in0.0 mm 0.00 in0.0 mm
02:09 AM 52.4°F11.3°C 51.7°F10.9°C 98% Calm Calm -- 29.80 in1009.1 mb 0.00 in0.0 mm 0.00 in0.0 mm 0.00 in0.0 mm
02:14 AM 52.2°F11.2°C 51.5°F10.8°C 98% Calm Calm -- 29.80 in1009.1 mb 0.00 in0.0 mm 0.00 in0.0 mm 0.00 in0.0 mm
02:19 AM 52.2°F11.2°C 51.5°F10.8°C 98% Calm Calm -- 29.77 in1008.1 mb 0.00 in0.0 mm 0.00 in0.0 mm 0.00 in0.0 mm
02:24 AM 52.2°F11.2°C 51.5°F10.8°C 98% Calm Calm -- 29.77 in1008.1 mb 0.00 in0.0 mm 0.00 in0.0 mm 0.00 in0.0 mm
02:30 AM 52.2°F11.2°C 51.5°F10.8°C 98% Calm Calm -- 29.77 in1008.1 mb 0.00 in0.0 mm 0.00 in0.0 mm 0.00 in0.0 mm
02:35 AM 52.4°F11.3°C 51.7°F10.9°C 98% Calm Calm -- 29.77 in1008.1 mb 0.00 in0.0 mm 0.00 in0.0 mm 0.00 in0.0 mm
02:41 AM 52.2°F11.2°C 51.5°F10.8°C 98% Calm Calm -- 29.77 in1008.1 mb 0.00 in0.0 mm 0.00 in0.0 mm 0.00 in0.0 mm
02:46 AM 52.2°F11.2°C 51.5°F10.8°C 98% Calm Calm -- 29.77 in1008.1 mb 0.00 in0.0 mm 0.00 in0.0 mm 0.00 in0.0 mm
02:51 AM 52.2°F11.2°C 51.5°F10.8°C 98% Calm Calm -- 29.77 in1008.1 mb 0.00 in0.0 mm 0.00 in0.0 mm 0.00 in0.0 mm
02:56 AM 52.1°F11.2°C 51.4°F10.8°C 98% Calm Calm -- 29.77 in1008.1 mb 0.00 in0.0 mm 0.00 in0.0 mm 0.00 in0.0 mm
03:01 AM 52.1°F11.2°C 51.4°F10.8°C 98% Calm Calm -- 29.77 in1008.1 mb 0.00 in0.0 mm 0.00 in0.0 mm 0.00 in0.0 mm
03:06 AM 51.9°F11.1°C 51.2°F10.7°C 98% Calm Calm -- 29.77 in1008.1 mb 0.00 in0.0 mm 0.00 in0.0 mm 0.00 in0.0 mm
03:11 AM 51.9°F11.1°C 51.2°F10.7°C 98% Calm Calm -- 29.77 in1008.1 mb 0.00 in0.0 mm 0.00 in0.0 mm 0.00 in0.0 mm
03:16 AM 52.1°F11.2°C 51.4°F10.8°C 98% Calm Calm -- 29.77 in1008.1 mb 0.00 in0.0 mm 0.00 in0.0 mm 0.00 in0.0 mm
03:21 AM 52.1°F11.2°C 51.4°F10.8°C 98% Calm Calm -- 29.77 in1008.1 mb 0.00 in0.0 mm 0.00 in0.0 mm 0.00 in0.0 mm
03:26 AM 52.1°F11.2°C 51.4°F10.8°C 98% Calm Calm -- 29.77 in1008.1 mb 0.00 in0.0 mm 0.00 in0.0 mm 0.00 in0.0 mm
03:32 AM 52.2°F11.2°C 51.5°F10.8°C 98% Calm Calm -- 29.77 in1008.1 mb 0.00 in0.0 mm 0.00 in0.0 mm 0.00 in0.0 mm
03:37 AM 52.2°F11.2°C 51.5°F10.8°C 98% Calm Calm -- 29.77 in1008.1 mb 0.00 in0.0 mm 0.00 in0.0 mm 0.00 in0.0 mm
03:42 AM 52.4°F11.3°C 51.7°F10.9°C 98% Calm Calm -- 29.77 in1008.1 mb 0.00 in0.0 mm 0.00 in0.0 mm 0.00 in0.0 mm
03:47 AM 52.4°F11.3°C 51.7°F10.9°C 98% Calm Calm -- 29.77 in1008.1 mb 0.00 in0.0 mm 0.00 in0.0 mm 0.00 in0.0 mm
03:53 AM 52.4°F11.3°C 51.7°F10.9°C 98% Calm Calm -- 29.77 in1008.1 mb 0.00 in0.0 mm 0.00 in0.0 mm 0.00 in0.0 mm
03:58 AM 52.4°F11.3°C 51.7°F10.9°C 98% Calm Calm -- 29.77 in1008.1 mb 0.00 in0.0 mm 0.00 in0.0 mm 0.00 in0.0 mm
04:04 AM 52.6°F11.4°C 51.9°F11.1°C 98% 2.2 mph SSE3.5 kmh SSE 2.2 mph3.5 kmh 29.77 in1008.1 mb 0.00 in0.0 mm 0.00 in0.0 mm 0.00 in0.0 mm
04:09 AM 52.8°F11.6°C 52.1°F11.2°C 98% 2.2 mph SSE3.5 kmh SSE 2.2 mph3.5 kmh 29.77 in1008.1 mb 0.00 in0.0 mm 0.00 in0.0 mm 0.00 in0.0 mm
04:15 AM 53.0°F11.7°C 52.3°F11.3°C 98% 2.2 mph SSE3.5 kmh SSE 2.2 mph3.5 kmh 29.77 in1008.1 mb 0.00 in0.0 mm 0.00 in0.0 mm 0.00 in0.0 mm
04:20 AM 53.0°F11.7°C 52.3°F11.3°C 98% 2.2 mph SSE3.5 kmh SSE 2.2 mph3.5 kmh 29.77 in1008.1 mb 0.00 in0.0 mm 0.00 in0.0 mm 0.00 in0.0 mm
04:25 AM 53.1°F11.7°C 52.4°F11.3°C 98% 2.2 mph SSE3.5 kmh SSE 2.2 mph3.5 kmh 29.77 in1008.1 mb 0.04 in1.0 mm 0.48 in12.2 mm 0.04 in1.0 mm
04:30 AM 53.1°F11.7°C 52.4°F11.3°C 98% Calm Calm 2.2 mph3.5 kmh 29.77 in1008.1 mb 0.04 in1.0 mm 0.00 in0.0 mm 0.04 in1.0 mm
04:36 AM 53.1°F11.7°C 52.4°F11.3°C 98% Calm Calm 2.2 mph3.5 kmh 29.77 in1008.1 mb 0.04 in1.0 mm 0.00 in0.0 mm 0.04 in1.0 mm
04:40 AM 53.1°F11.7°C 52.4°F11.3°C 98% Calm Calm -- 29.77 in1008.1 mb 0.04 in1.0 mm 0.00 in0.0 mm 0.04 in1.0 mm
04:46 AM 53.3°F11.8°C 52.6°F11.4°C 98% Calm Calm -- 29.77 in1008.1 mb 0.04 in1.0 mm 0.00 in0.0 mm 0.04 in1.0 mm
04:51 AM 53.3°F11.8°C 52.6°F11.4°C 98% Calm Calm -- 29.77 in1008.1 mb 0.00 in0.0 mm 0.00 in0.0 mm 0.04 in1.0 mm
04:56 AM 53.5°F11.9°C 52.8°F11.6°C 98% Calm Calm -- 29.77 in1008.1 mb 0.00 in0.0 mm 0.00 in0.0 mm 0.04 in1.0 mm
05:01 AM 53.5°F11.9°C 52.8°F11.6°C 98% Calm Calm -- 29.77 in1008.1 mb 0.00 in0.0 mm 0.00 in0.0 mm 0.04 in1.0 mm
05:06 AM 53.5°F11.9°C 52.8°F11.6°C 98% Calm Calm -- 29.77 in1008.1 mb 0.00 in0.0 mm 0.00 in0.0 mm 0.04 in1.0 mm
05:11 AM 53.5°F11.9°C 52.8°F11.6°C 98% Calm Calm -- 29.77 in1008.1 mb 0.00 in0.0 mm 0.00 in0.0 mm 0.04 in1.0 mm
05:17 AM 53.5°F11.9°C 52.8°F11.6°C 98% Calm Calm -- 29.77 in1008.1 mb 0.00 in0.0 mm 0.00 in0.0 mm 0.04 in1.0 mm
05:22 AM 53.5°F11.9°C 52.8°F11.6°C 98% Calm Calm -- 29.77 in1008.1 mb 0.00 in0.0 mm 0.00 in0.0 mm 0.04 in1.0 mm
05:27 AM 53.5°F11.9°C 52.8°F11.6°C 98% Calm Calm -- 29.77 in1008.1 mb 0.00 in0.0 mm 0.00 in0.0 mm 0.04 in1.0 mm
05:32 AM 53.5°F11.9°C 52.8°F11.6°C 98% Calm Calm -- 29.77 in1008.1 mb 0.00 in0.0 mm 0.00 in0.0 mm 0.04 in1.0 mm
05:38 AM 53.5°F11.9°C 52.8°F11.6°C 98% Calm Calm -- 29.77 in1008.1 mb 0.00 in0.0 mm 0.00 in0.0 mm 0.04 in1.0 mm
05:43 AM 53.5°F11.9°C 52.8°F11.6°C 98% Calm Calm -- 29.77 in1008.1 mb 0.00 in0.0 mm 0.00 in0.0 mm 0.04 in1.0 mm
05:48 AM 53.5°F11.9°C 52.8°F11.6°C 98% Calm Calm -- 29.77 in1008.1 mb 0.00 in0.0 mm 0.00 in0.0 mm 0.04 in1.0 mm
05:53 AM 53.5°F11.9°C 52.8°F11.6°C 98% Calm Calm -- 29.77 in1008.1 mb 0.00 in0.0 mm 0.00 in0.0 mm 0.04 in1.0 mm
05:58 AM 53.3°F11.8°C 52.6°F11.4°C 98% Calm Calm -- 29.77 in1008.1 mb 0.00 in0.0 mm 0.00 in0.0 mm 0.04 in1.0 mm
06:03 AM 53.3°F11.8°C 52.6°F11.4°C 98% Calm Calm -- 29.77 in1008.1 mb 0.00 in0.0 mm 0.00 in0.0 mm 0.04 in1.0 mm
06:08 AM 53.3°F11.8°C 52.6°F11.4°C 98% Calm Calm -- 29.77 in1008.1 mb 0.00 in0.0 mm 0.00 in0.0 mm 0.04 in1.0 mm
06:13 AM 53.5°F11.9°C 52.8°F11.6°C 98% Calm Calm -- 29.77 in1008.1 mb 0.00 in0.0 mm 0.00 in0.0 mm 0.04 in1.0 mm
06:18 AM 53.3°F11.8°C 52.6°F11.4°C 98% Calm Calm -- 29.77 in1008.1 mb 0.00 in0.0 mm 0.00 in0.0 mm 0.04 in1.0 mm
06:23 AM 53.5°F11.9°C 52.8°F11.6°C 98% Calm Calm -- 29.77 in1008.1 mb 0.00 in0.0 mm 0.00 in0.0 mm 0.04 in1.0 mm
06:29 AM 53.3°F11.8°C 52.6°F11.4°C 98% Calm Calm -- 29.77 in1008.1 mb 0.00 in0.0 mm 0.00 in0.0 mm 0.04 in1.0 mm
06:34 AM 53.3°F11.8°C 52.6°F11.4°C 98% Calm Calm -- 29.77 in1008.1 mb 0.00 in0.0 mm 0.00 in0.0 mm 0.04 in1.0 mm
06:39 AM 53.3°F11.8°C 52.6°F11.4°C 98% Calm Calm -- 29.77 in1008.1 mb 0.00 in0.0 mm 0.00 in0.0 mm 0.04 in1.0 mm
06:44 AM 53.3°F11.8°C 52.6°F11.4°C 98% Calm Calm -- 29.77 in1008.1 mb 0.00 in0.0 mm 0.00 in0.0 mm 0.04 in1.0 mm
06:50 AM 53.5°F11.9°C 52.8°F11.6°C 98% Calm Calm -- 29.80 in1009.1 mb 0.00 in0.0 mm 0.00 in0.0 mm 0.04 in1.0 mm
06:55 AM 53.3°F11.8°C 52.6°F11.4°C 98% Calm Calm -- 29.80 in1009.1 mb 0.00 in0.0 mm 0.00 in0.0 mm 0.04 in1.0 mm
07:00 AM 53.1°F11.7°C 52.4°F11.3°C 98% Calm Calm -- 29.80 in1009.1 mb 0.00 in0.0 mm 0.00 in0.0 mm 0.04 in1.0 mm
07:05 AM 53.1°F11.7°C 52.4°F11.3°C 98% Calm Calm -- 29.80 in1009.1 mb 0.00 in0.0 mm 0.00 in0.0 mm 0.04 in1.0 mm
07:10 AM 53.1°F11.7°C 52.4°F11.3°C 98% Calm Calm -- 29.80 in1009.1 mb 0.00 in0.0 mm 0.00 in0.0 mm 0.04 in1.0 mm
07:15 AM 53.3°F11.8°C 52.6°F11.4°C 98% Calm Calm -- 29.80 in1009.1 mb 0.00 in0.0 mm 0.00 in0.0 mm 0.04 in1.0 mm
07:21 AM 53.3°F11.8°C 52.6°F11.4°C 98% Calm Calm -- 29.80 in1009.1 mb 0.00 in0.0 mm 0.00 in0.0 mm 0.04 in1.0 mm
07:26 AM 53.5°F11.9°C 52.8°F11.6°C 98% Calm Calm -- 29.80 in1009.1 mb 0.00 in0.0 mm 0.00 in0.0 mm 0.04 in1.0 mm
07:31 AM 53.7°F12.1°C 53.0°F11.7°C 98% Calm Calm -- 29.80 in1009.1 mb 0.00 in0.0 mm 0.00 in0.0 mm 0.04 in1.0 mm
07:36 AM 53.7°F12.1°C 53.0°F11.7°C 98% 2.6 mph ESE4.2 kmh ESE 3.2 mph5.1 kmh 29.80 in1009.1 mb 0.00 in0.0 mm 0.00 in0.0 mm 0.04 in1.0 mm
07:43 AM 54.0°F12.2°C 53.3°F11.8°C 98% 2.2 mph ESE3.5 kmh ESE 3.2 mph5.1 kmh 29.80 in1009.1 mb 0.00 in0.0 mm 0.00 in0.0 mm 0.04 in1.0 mm
07:48 AM 54.0°F12.2°C 53.3°F11.8°C 98% 2.6 mph ESE4.2 kmh ESE 2.6 mph4.2 kmh 29.80 in1009.1 mb 0.00 in0.0 mm 0.00 in0.0 mm 0.04 in1.0 mm
07:53 AM 54.4°F12.4°C 53.7°F12.1°C 98% 1.8 mph SE2.9 kmh SE 5.8 mph9.3 kmh 29.83 in1010.2 mb 0.00 in0.0 mm 0.00 in0.0 mm 0.04 in1.0 mm
07:58 AM 54.6°F12.6°C 53.9°F12.2°C 98% 3.2 mph ESE5.1 kmh ESE 5.8 mph9.3 kmh 29.83 in1010.2 mb 0.00 in0.0 mm 0.00 in0.0 mm 0.04 in1.0 mm
08:03 AM 54.9°F12.7°C 54.2°F12.3°C 98% Calm Calm 4.0 mph6.4 kmh 29.83 in1010.2 mb 0.00 in0.0 mm 0.00 in0.0 mm 0.04 in1.0 mm
08:08 AM 55.1°F12.8°C 54.4°F12.4°C 98% Calm Calm 4.0 mph6.4 kmh 29.77 in1008.1 mb 0.00 in0.0 mm 0.00 in0.0 mm 0.04 in1.0 mm
08:13 AM 55.1°F12.8°C 54.4°F12.4°C 98% 2.0 mph ESE3.2 kmh ESE 4.0 mph6.4 kmh 29.77 in1008.1 mb 0.00 in0.0 mm 0.00 in0.0 mm 0.04 in1.0 mm
08:18 AM 55.5°F13.1°C 54.8°F12.7°C 98% Calm Calm 4.0 mph6.4 kmh 29.77 in1008.1 mb 0.00 in0.0 mm 0.00 in0.0 mm 0.04 in1.0 mm
08:23 AM 55.7°F13.2°C 55.0°F12.8°C 98% Calm Calm 2.2 mph3.5 kmh 29.80 in1009.1 mb 0.00 in0.0 mm 0.00 in0.0 mm 0.04 in1.0 mm
08:28 AM 55.7°F13.2°C 55.0°F12.8°C 98% 2.0 mph ESE3.2 kmh ESE 2.6 mph4.2 kmh 29.80 in1009.1 mb 0.00 in0.0 mm 0.00 in0.0 mm 0.04 in1.0 mm
08:34 AM 55.8°F13.2°C 55.1°F12.8°C 98% Calm Calm 3.2 mph5.1 kmh 29.80 in1009.1 mb 0.00 in0.0 mm 0.00 in0.0 mm 0.04 in1.0 mm
08:39 AM 55.8°F13.2°C 55.1°F12.8°C 98% 2.8 mph SW4.5 kmh SW 5.0 mph8.0 kmh 29.80 in1009.1 mb 0.00 in0.0 mm 0.00 in0.0 mm 0.04 in1.0 mm
08:44 AM 55.8°F13.2°C 55.1°F12.8°C 98% Calm Calm 5.0 mph8.0 kmh 29.80 in1009.1 mb 0.00 in0.0 mm 0.00 in0.0 mm 0.04 in1.0 mm
08:49 AM 56.0°F13.3°C 55.3°F12.9°C 98% 2.6 mph S4.2 kmh S 3.2 mph5.1 kmh 29.77 in1008.1 mb 0.00 in0.0 mm 0.00 in0.0 mm 0.04 in1.0 mm
08:55 AM 56.0°F13.3°C 55.3°F12.9°C 98% 2.5 mph SSE4.0 kmh SSE 3.2 mph5.1 kmh 29.77 in1008.1 mb 0.00 in0.0 mm 0.00 in0.0 mm 0.04 in1.0 mm
09:00 AM 56.2°F13.4°C 55.5°F13.1°C 98% 2.9 mph WSW4.7 kmh WSW 4.0 mph6.4 kmh 29.77 in1008.1 mb 0.00 in0.0 mm 0.00 in0.0 mm 0.04 in1.0 mm
09:05 AM 56.2°F13.4°C 55.5°F13.1°C 98% 2.6 mph SE4.2 kmh SE 5.0 mph8.0 kmh 29.77 in1008.1 mb 0.00 in0.0 mm 0.00 in0.0 mm 0.04 in1.0 mm
09:10 AM 56.2°F13.4°C 55.5°F13.1°C 98% 1.8 mph SSW2.9 kmh SSW 5.0 mph8.0 kmh 29.77 in1008.1 mb 0.00 in0.0 mm 0.00 in0.0 mm 0.04 in1.0 mm
09:15 AM 56.4°F13.6°C 55.7°F13.2°C 98% Calm Calm 5.0 mph8.0 kmh 29.77 in1008.1 mb 0.00 in0.0 mm 0.00 in0.0 mm 0.04 in1.0 mm
09:20 AM 57.1°F13.9°C 56.4°F13.6°C 98% 1.9 mph SE3.1 kmh SE 2.6 mph4.2 kmh 29.80 in1009.1 mb 0.00 in0.0 mm 0.00 in0.0 mm 0.04 in1.0 mm
09:25 AM 58.2°F14.6°C 57.5°F14.2°C 98% 2.6 mph SE4.2 kmh SE 3.2 mph5.1 kmh 29.80 in1009.1 mb 0.00 in0.0 mm 0.00 in0.0 mm 0.04 in1.0 mm
09:30 AM 58.9°F14.9°C 58.2°F14.6°C 98% 2.2 mph E3.5 kmh E 3.2 mph5.1 kmh 29.80 in1009.1 mb 0.00 in0.0 mm 0.00 in0.0 mm 0.04 in1.0 mm
09:35 AM 58.7°F14.8°C 58.0°F14.4°C 98% 2.2 mph SSW3.5 kmh SSW 4.4 mph7.1 kmh 29.80 in1009.1 mb 0.00 in0.0 mm 0.00 in0.0 mm 0.04 in1.0 mm
09:40 AM 58.5°F14.7°C 57.8°F14.3°C 98% Calm Calm 4.4 mph7.1 kmh 29.80 in1009.1 mb 0.00 in0.0 mm 0.00 in0.0 mm 0.04 in1.0 mm
09:45 AM 58.5°F14.7°C 57.8°F14.3°C 98% 2.2 mph ESE3.5 kmh ESE 3.2 mph5.1 kmh 29.80 in1009.1 mb 0.00 in0.0 mm 0.00 in0.0 mm 0.04 in1.0 mm
09:50 AM 58.4°F14.7°C 57.7°F14.3°C 98% 4.0 mph SW6.4 kmh SW 6.2 mph10.0 kmh 29.80 in1009.1 mb 0.00 in0.0 mm 0.00 in0.0 mm 0.04 in1.0 mm
09:55 AM 58.5°F14.7°C 57.8°F14.3°C 98% 2.5 mph E4.0 kmh E 6.2 mph10.0 kmh 29.80 in1009.1 mb 0.00 in0.0 mm 0.00 in0.0 mm 0.04 in1.0 mm
10:00 AM 59.1°F15.1°C 58.4°F14.7°C 98% 2.4 mph E3.9 kmh E 5.8 mph9.3 kmh 29.80 in1009.1 mb 0.00 in0.0 mm 0.00 in0.0 mm 0.04 in1.0 mm
10:05 AM 59.3°F15.2°C 58.6°F14.8°C 98% 3.0 mph SW4.8 kmh SW 4.4 mph7.1 kmh 29.80 in1009.1 mb 0.00 in0.0 mm 0.00 in0.0 mm 0.04 in1.0 mm
10:10 AM 58.9°F14.9°C 58.2°F14.6°C 98% Calm Calm 4.4 mph7.1 kmh 29.80 in1009.1 mb 0.00 in0.0 mm 0.00 in0.0 mm 0.04 in1.0 mm
10:16 AM 58.7°F14.8°C 58.0°F14.4°C 98% 3.8 mph N6.1 kmh N 5.0 mph8.0 kmh 29.80 in1009.1 mb 0.00 in0.0 mm 0.00 in0.0 mm 0.04 in1.0 mm
10:21 AM 59.3°F15.2°C 58.6°F14.8°C 98% Calm Calm 5.0 mph8.0 kmh 29.80 in1009.1 mb 0.00 in0.0 mm 0.00 in0.0 mm 0.04 in1.0 mm
10:26 AM 59.8°F15.4°C 59.1°F15.1°C 98% 3.4 mph SW5.5 kmh SW 5.0 mph8.0 kmh 29.80 in1009.1 mb 0.00 in0.0 mm 0.00 in0.0 mm 0.04 in1.0 mm
10:31 AM 60.4°F15.8°C 59.8°F15.4°C 98% 3.8 mph S6.1 kmh S 5.4 mph8.7 kmh 29.80 in1009.1 mb 0.00 in0.0 mm 0.00 in0.0 mm 0.04 in1.0 mm
10:36 AM 61.1°F16.2°C 60.5°F15.8°C 98% 2.9 mph SSE4.7 kmh SSE 5.4 mph8.7 kmh 29.80 in1009.1 mb 0.00 in0.0 mm 0.00 in0.0 mm 0.04 in1.0 mm
10:41 AM 61.5°F16.4°C 60.6°F15.9°C 97% Calm Calm 5.0 mph8.0 kmh 29.80 in1009.1 mb 0.00 in0.0 mm 0.00 in0.0 mm 0.04 in1.0 mm
10:46 AM 61.1°F16.2°C 59.9°F15.5°C 96% 3.2 mph ENE5.1 kmh ENE 3.2 mph5.1 kmh 29.80 in1009.1 mb 0.00 in0.0 mm 0.00 in0.0 mm 0.04 in1.0 mm
10:51 AM 60.4°F15.8°C 58.3°F14.6°C 93% Calm Calm 4.4 mph7.1 kmh 29.80 in1009.1 mb 0.00 in0.0 mm 0.00 in0.0 mm 0.04 in1.0 mm
10:57 AM 60.2°F15.7°C 58.4°F14.7°C 94% Calm Calm 4.4 mph7.1 kmh 29.80 in1009.1 mb 0.00 in0.0 mm 0.00 in0.0 mm 0.04 in1.0 mm
11:02 AM 60.2°F15.7°C 58.1°F14.5°C 93% 2.3 mph WNW3.7 kmh WNW 2.6 mph4.2 kmh 29.80 in1009.1 mb 0.00 in0.0 mm 0.00 in0.0 mm 0.04 in1.0 mm
11:07 AM 60.8°F16.0°C 58.7°F14.8°C 93% 3.1 mph SSW5.0 kmh SSW 4.4 mph7.1 kmh 29.80 in1009.1 mb 0.00 in0.0 mm 0.00 in0.0 mm 0.04 in1.0 mm
11:12 AM 61.5°F16.4°C 58.8°F14.9°C 91% 3.3 mph W5.3 kmh W 5.4 mph8.7 kmh 29.80 in1009.1 mb 0.00 in0.0 mm 0.00 in0.0 mm 0.04 in1.0 mm
11:17 AM 61.9°F16.6°C 58.3°F14.6°C 88% Calm Calm 5.4 mph8.7 kmh 29.80 in1009.1 mb 0.00 in0.0 mm 0.00 in0.0 mm 0.04 in1.0 mm
11:22 AM 62.9°F17.2°C 60.2°F15.7°C 91% 3.7 mph NNE6.0 kmh NNE 5.0 mph8.0 kmh 29.80 in1009.1 mb 0.00 in0.0 mm 0.00 in0.0 mm 0.04 in1.0 mm
11:29 AM 62.9°F17.2°C 58.3°F14.6°C 85% 2.6 mph SSW4.2 kmh SSW 5.4 mph8.7 kmh 29.80 in1009.1 mb 0.00 in0.0 mm 0.00 in0.0 mm 0.04 in1.0 mm
11:34 AM 64.0°F17.8°C 58.7°F14.8°C 83% 2.3 mph SSE3.7 kmh SSE 5.4 mph8.7 kmh 29.80 in1009.1 mb 0.00 in0.0 mm 0.00 in0.0 mm 0.04 in1.0 mm
11:39 AM 65.3°F18.5°C 58.7°F14.8°C 79% 2.7 mph W4.3 kmh W 5.4 mph8.7 kmh 29.80 in1009.1 mb 0.00 in0.0 mm 0.00 in0.0 mm 0.04 in1.0 mm
11:44 AM 67.1°F19.5°C 60.4°F15.8°C 79% 2.6 mph S4.2 kmh S 5.4 mph8.7 kmh 29.80 in1009.1 mb 0.00 in0.0 mm 0.00 in0.0 mm 0.04 in1.0 mm
11:49 AM 67.8°F19.9°C 58.6°F14.8°C 72% 3.0 mph S4.8 kmh S 5.4 mph8.7 kmh 29.80 in1009.1 mb 0.00 in0.0 mm 0.00 in0.0 mm 0.04 in1.0 mm
11:54 AM 69.6°F20.9°C 61.4°F16.3°C 75% 2.4 mph SSE3.9 kmh SSE 5.4 mph8.7 kmh 29.80 in1009.1 mb 0.00 in0.0 mm 0.00 in0.0 mm 0.04 in1.0 mm
12:01 PM 70.0°F21.1°C 59.5°F15.3°C 69% 5.6 mph NE9.0 kmh NE 9.4 mph15.1 kmh 29.80 in1009.1 mb 0.00 in0.0 mm 0.00 in0.0 mm 0.04 in1.0 mm
12:06 PM 71.2°F21.8°C 59.8°F15.4°C 67% 2.4 mph E3.9 kmh E 9.4 mph15.1 kmh 29.80 in1009.1 mb 0.00 in0.0 mm 0.00 in0.0 mm 0.04 in1.0 mm
12:12 PM 71.2°F21.8°C 59.0°F15.0°C 65% 4.6 mph SW7.4 kmh SW 5.4 mph8.7 kmh 29.80 in1009.1 mb 0.00 in0.0 mm 0.00 in0.0 mm 0.04 in1.0 mm
12:17 PM 70.3°F21.3°C 58.1°F14.5°C 65% 5.3 mph NE8.5 kmh NE 8.0 mph12.9 kmh 29.80 in1009.1 mb 0.00 in0.0 mm 0.00 in0.0 mm 0.04 in1.0 mm
12:22 PM 69.8°F21.0°C 57.2°F14.0°C 64% 5.2 mph N8.4 kmh N 8.6 mph13.8 kmh 29.80 in1009.1 mb 0.00 in0.0 mm 0.00 in0.0 mm 0.04 in1.0 mm
12:27 PM 69.1°F20.6°C 57.0°F13.9°C 65% 5.5 mph N8.9 kmh N 8.6 mph13.8 kmh 29.80 in1009.1 mb 0.00 in0.0 mm 0.00 in0.0 mm 0.04 in1.0 mm
12:32 PM 68.7°F20.4°C 56.6°F13.7°C 65% 5.3 mph NNE8.5 kmh NNE 8.6 mph13.8 kmh 29.80 in1009.1 mb 0.00 in0.0 mm 0.00 in0.0 mm 0.04 in1.0 mm
12:37 PM 70.5°F21.4°C 58.3°F14.6°C 65% 2.6 mph ESE4.2 kmh ESE 6.8 mph10.9 kmh 29.80 in1009.1 mb 0.00 in0.0 mm 0.00 in0.0 mm 0.04 in1.0 mm
12:42 PM 72.1°F22.3°C 58.5°F14.7°C 62% 3.5 mph N5.6 kmh N 5.4 mph8.7 kmh 29.80 in1009.1 mb 0.00 in0.0 mm 0.00 in0.0 mm 0.04 in1.0 mm
12:47 PM 70.3°F21.3°C 54.0°F12.2°C 56% 4.5 mph WNW7.2 kmh WNW 6.2 mph10.0 kmh 29.80 in1009.1 mb 0.00 in0.0 mm 0.00 in0.0 mm 0.04 in1.0 mm
12:52 PM 72.3°F22.4°C 56.3°F13.5°C 57% 4.3 mph SW6.9 kmh SW 6.2 mph10.0 kmh 29.80 in1009.1 mb 0.00 in0.0 mm 0.00 in0.0 mm 0.04 in1.0 mm
12:57 PM 71.8°F22.1°C 56.8°F13.8°C 59% 4.0 mph WSW6.4 kmh WSW 8.0 mph12.9 kmh 29.80 in1009.1 mb 0.00 in0.0 mm 0.00 in0.0 mm 0.04 in1.0 mm
01:02 PM 72.3°F22.4°C 56.3°F13.5°C 57% 2.0 mph SSE3.2 kmh SSE 8.0 mph12.9 kmh 29.80 in1009.1 mb 0.00 in0.0 mm 0.00 in0.0 mm 0.04 in1.0 mm
01:07 PM 71.9°F22.2°C 56.0°F13.3°C 57% 5.8 mph NE9.3 kmh NE 9.0 mph14.5 kmh 29.80 in1009.1 mb 0.00 in0.0 mm 0.00 in0.0 mm 0.04 in1.0 mm
01:12 PM 71.0°F21.7°C 54.6°F12.6°C 56% 4.3 mph N6.9 kmh N 9.0 mph14.5 kmh 29.80 in1009.1 mb 0.00 in0.0 mm 0.00 in0.0 mm 0.04 in1.0 mm
01:17 PM 72.1°F22.3°C 56.1°F13.4°C 57% 5.8 mph NNE9.3 kmh NNE 8.6 mph13.8 kmh 29.80 in1009.1 mb 0.00 in0.0 mm 0.00 in0.0 mm 0.04 in1.0 mm
01:23 PM 74.6°F23.7°C 58.0°F14.4°C 56% 4.5 mph NE7.2 kmh NE 9.8 mph15.8 kmh 29.80 in1009.1 mb 0.00 in0.0 mm 0.00 in0.0 mm 0.04 in1.0 mm
01:28 PM 74.1°F23.4°C 57.0°F13.9°C 55% 2.2 mph SE3.5 kmh SE 9.8 mph15.8 kmh 29.80 in1009.1 mb 0.00 in0.0 mm 0.00 in0.0 mm 0.04 in1.0 mm
01:33 PM 72.8°F22.7°C 55.8°F13.2°C 55% 3.1 mph SE5.0 kmh SE 5.4 mph8.7 kmh 29.80 in1009.1 mb 0.00 in0.0 mm 0.00 in0.0 mm 0.04 in1.0 mm
01:38 PM 71.0°F21.7°C 55.6°F13.1°C 58% 3.0 mph SSW4.8 kmh SSW 5.4 mph8.7 kmh 29.80 in1009.1 mb 0.00 in0.0 mm 0.00 in0.0 mm 0.04 in1.0 mm
01:43 PM 70.3°F21.3°C 54.5°F12.5°C 57% 1.8 mph SSE2.9 kmh SSE 4.0 mph6.4 kmh 29.80 in1009.1 mb 0.00 in0.0 mm 0.00 in0.0 mm 0.04 in1.0 mm
01:48 PM 69.2°F20.7°C 53.9°F12.2°C 58% 2.2 mph SSE3.5 kmh SSE 3.2 mph5.1 kmh 29.80 in1009.1 mb 0.00 in0.0 mm 0.00 in0.0 mm 0.04 in1.0 mm
01:54 PM 70.5°F21.4°C 56.1°F13.4°C 60% 2.2 mph SSE3.5 kmh SSE 2.6 mph4.2 kmh 29.80 in1009.1 mb 0.00 in0.0 mm 0.00 in0.0 mm 0.04 in1.0 mm
01:59 PM 72.1°F22.3°C 56.6°F13.7°C 58% 3.4 mph SSW5.5 kmh SSW 4.4 mph7.1 kmh 29.80 in1009.1 mb 0.00 in0.0 mm 0.00 in0.0 mm 0.04 in1.0 mm
02:04 PM 72.1°F22.3°C 53.6°F12.0°C 52% 4.1 mph SW6.6 kmh SW 5.8 mph9.3 kmh 29.80 in1009.1 mb 0.00 in0.0 mm 0.00 in0.0 mm 0.04 in1.0 mm
02:09 PM 71.6°F22.0°C 53.1°F11.7°C 52% 2.2 mph E3.5 kmh E 5.8 mph9.3 kmh 29.80 in1009.1 mb 0.00 in0.0 mm 0.00 in0.0 mm 0.04 in1.0 mm
02:15 PM 70.0°F21.1°C 53.7°F12.1°C 56% 2.9 mph SW4.7 kmh SW 5.8 mph9.3 kmh 29.80 in1009.1 mb 0.00 in0.0 mm 0.00 in0.0 mm 0.04 in1.0 mm
02:20 PM 69.8°F21.0°C 53.5°F11.9°C 56% 3.7 mph NE6.0 kmh NE 5.0 mph8.0 kmh 29.80 in1009.1 mb 0.00 in0.0 mm 0.00 in0.0 mm 0.04 in1.0 mm
02:25 PM 69.4°F20.8°C 53.6°F12.0°C 57% 2.2 mph ENE3.5 kmh ENE 5.0 mph8.0 kmh 29.80 in1009.1 mb 0.00 in0.0 mm 0.00 in0.0 mm 0.04 in1.0 mm
02:30 PM 68.2°F20.1°C 53.4°F11.9°C 59% 4.7 mph NE7.6 kmh NE 5.8 mph9.3 kmh 29.80 in1009.1 mb 0.00 in0.0 mm 0.00 in0.0 mm 0.04 in1.0 mm
02:35 PM 66.9°F19.4°C 52.7°F11.5°C 60% 4.7 mph N7.6 kmh N 8.6 mph13.8 kmh 29.80 in1009.1 mb 0.00 in0.0 mm 0.00 in0.0 mm 0.04 in1.0 mm
02:40 PM 66.5°F19.2°C 52.8°F11.6°C 61% 3.8 mph NE6.1 kmh NE 8.6 mph13.8 kmh 29.80 in1009.1 mb 0.00 in0.0 mm 0.00 in0.0 mm 0.04 in1.0 mm
02:46 PM 66.5°F19.2°C 54.1°F12.3°C 64% 2.2 mph NE3.5 kmh NE 6.8 mph10.9 kmh 29.80 in1009.1 mb 0.00 in0.0 mm 0.00 in0.0 mm 0.04 in1.0 mm
02:51 PM 66.7°F19.3°C 54.7°F12.6°C 65% Calm Calm 4.4 mph7.1 kmh 29.80 in1009.1 mb 0.00 in0.0 mm 0.00 in0.0 mm 0.04 in1.0 mm
02:56 PM 67.4°F19.7°C 56.2°F13.4°C 67% 2.0 mph E3.2 kmh E 3.2 mph5.1 kmh 29.80 in1009.1 mb 0.00 in0.0 mm 0.00 in0.0 mm 0.04 in1.0 mm
03:01 PM 68.5°F20.3°C 57.2°F14.0°C 67% 3.2 mph N5.1 kmh N 5.4 mph8.7 kmh 29.80 in1009.1 mb 0.00 in0.0 mm 0.00 in0.0 mm 0.04 in1.0 mm
03:06 PM 68.5°F20.3°C 55.5°F13.1°C 63% 4.2 mph WSW6.8 kmh WSW 5.8 mph9.3 kmh 29.80 in1009.1 mb 0.00 in0.0 mm 0.00 in0.0 mm 0.04 in1.0 mm
03:11 PM 71.9°F22.2°C 58.3°F14.6°C 62% 5.8 mph N9.3 kmh N 7.2 mph11.6 kmh 29.80 in1009.1 mb 0.00 in0.0 mm 0.00 in0.0 mm 0.04 in1.0 mm
03:16 PM 72.8°F22.7°C 57.3°F14.1°C 58% 2.7 mph E4.3 kmh E 7.2 mph11.6 kmh 29.80 in1009.1 mb 0.00 in0.0 mm 0.00 in0.0 mm 0.04 in1.0 mm
03:21 PM 72.1°F22.3°C 53.6°F12.0°C 52% 4.7 mph W7.6 kmh W 6.2 mph10.0 kmh 29.80 in1009.1 mb 0.00 in0.0 mm 0.00 in0.0 mm 0.04 in1.0 mm
03:26 PM 71.4°F21.9°C 54.0°F12.2°C 54% 3.2 mph NNE5.1 kmh NNE 6.2 mph10.0 kmh 29.80 in1009.1 mb 0.00 in0.0 mm 0.00 in0.0 mm 0.04 in1.0 mm
03:31 PM 70.5°F21.4°C 53.6°F12.0°C 55% 2.4 mph S3.9 kmh S 4.4 mph7.1 kmh 29.80 in1009.1 mb 0.00 in0.0 mm 0.00 in0.0 mm 0.04 in1.0 mm
03:36 PM 69.6°F20.9°C 53.8°F12.1°C 57% 2.7 mph WSW4.3 kmh WSW 4.4 mph7.1 kmh 29.77 in1008.1 mb 0.00 in0.0 mm 0.00 in0.0 mm 0.04 in1.0 mm
03:41 PM 71.0°F21.7°C 55.1°F12.8°C 57% 2.4 mph S3.9 kmh S 5.4 mph8.7 kmh 29.77 in1008.1 mb 0.00 in0.0 mm 0.00 in0.0 mm 0.04 in1.0 mm
03:46 PM 71.0°F21.7°C 55.6°F13.1°C 58% 2.6 mph SSE4.2 kmh SSE 5.4 mph8.7 kmh 29.77 in1008.1 mb 0.00 in0.0 mm 0.00 in0.0 mm 0.04 in1.0 mm
03:51 PM 69.8°F21.0°C 53.0°F11.7°C 55% 3.3 mph SSW5.3 kmh SSW 5.8 mph9.3 kmh 29.77 in1008.1 mb 0.00 in0.0 mm 0.00 in0.0 mm 0.04 in1.0 mm
03:57 PM 69.2°F20.7°C 52.9°F11.6°C 56% 3.2 mph SW5.1 kmh SW 7.2 mph11.6 kmh 29.77 in1008.1 mb 0.00 in0.0 mm 0.00 in0.0 mm 0.04 in1.0 mm
04:02 PM 69.8°F21.0°C 54.5°F12.5°C 58% 3.7 mph SSE6.0 kmh SSE 7.2 mph11.6 kmh 29.77 in1008.1 mb 0.00 in0.0 mm 0.00 in0.0 mm 0.04 in1.0 mm
04:07 PM 70.9°F21.6°C 56.0°F13.3°C 59% 3.7 mph S6.0 kmh S 5.4 mph8.7 kmh 29.77 in1008.1 mb 0.00 in0.0 mm 0.00 in0.0 mm 0.04 in1.0 mm
04:12 PM 71.6°F22.0°C 54.7°F12.6°C 55% 3.8 mph NW6.1 kmh NW 8.0 mph12.9 kmh 29.77 in1008.1 mb 0.00 in0.0 mm 0.00 in0.0 mm 0.04 in1.0 mm
04:17 PM 73.4°F23.0°C 54.8°F12.7°C 52% 3.1 mph SE5.0 kmh SE 8.0 mph12.9 kmh 29.77 in1008.1 mb 0.00 in0.0 mm 0.00 in0.0 mm 0.04 in1.0 mm
04:22 PM 74.1°F23.4°C 55.4°F13.0°C 52% 3.2 mph SSE5.1 kmh SSE 8.0 mph12.9 kmh 29.77 in1008.1 mb 0.00 in0.0 mm 0.00 in0.0 mm 0.04 in1.0 mm
04:27 PM 73.4°F23.0°C 53.1°F11.7°C 49% 4.7 mph N7.6 kmh N 7.6 mph12.2 kmh 29.77 in1008.1 mb 0.00 in0.0 mm 0.00 in0.0 mm 0.04 in1.0 mm
04:32 PM 74.6°F23.7°C 54.8°F12.7°C 50% 3.1 mph E5.0 kmh E 7.6 mph12.2 kmh 29.77 in1008.1 mb 0.00 in0.0 mm 0.00 in0.0 mm 0.04 in1.0 mm
04:37 PM 73.7°F23.2°C 51.6°F10.9°C 46% 9.8 mph NNE15.8 kmh NNE 12.0 mph19.3 kmh 29.77 in1008.1 mb 0.00 in0.0 mm 0.00 in0.0 mm 0.04 in1.0 mm
04:42 PM 71.2°F21.8°C 49.9°F9.9°C 47% 3.4 mph W5.5 kmh W 12.0 mph19.3 kmh 29.77 in1008.1 mb 0.00 in0.0 mm 0.00 in0.0 mm 0.04 in1.0 mm
04:47 PM 72.1°F22.3°C 51.9°F11.1°C 49% 4.3 mph N6.9 kmh N 7.2 mph11.6 kmh 29.77 in1008.1 mb 0.00 in0.0 mm 0.00 in0.0 mm 0.04 in1.0 mm
04:52 PM 71.4°F21.9°C 51.2°F10.7°C 49% 3.5 mph WSW5.6 kmh WSW 7.2 mph11.6 kmh 29.77 in1008.1 mb 0.00 in0.0 mm 0.00 in0.0 mm 0.04 in1.0 mm
04:57 PM 70.7°F21.5°C 52.8°F11.6°C 53% Calm Calm 4.4 mph7.1 kmh 29.77 in1008.1 mb 0.00 in0.0 mm 0.00 in0.0 mm 0.04 in1.0 mm
05:02 PM 70.1°F21.2°C 52.2°F11.2°C 53% 3.5 mph SW5.6 kmh SW 5.0 mph8.0 kmh 29.77 in1008.1 mb 0.00 in0.0 mm 0.00 in0.0 mm 0.04 in1.0 mm
05:08 PM 71.0°F21.7°C 52.5°F11.4°C 52% 2.7 mph SW4.3 kmh SW 5.0 mph8.0 kmh 29.77 in1008.1 mb 0.00 in0.0 mm 0.00 in0.0 mm 0.04 in1.0 mm
05:13 PM 70.9°F21.6°C 52.4°F11.3°C 52% 2.5 mph ESE4.0 kmh ESE 5.8 mph9.3 kmh 29.77 in1008.1 mb 0.00 in0.0 mm 0.00 in0.0 mm 0.04 in1.0 mm
05:18 PM 70.5°F21.4°C 51.0°F10.6°C 50% 3.5 mph NW5.6 kmh NW 9.4 mph15.1 kmh 29.77 in1008.1 mb 0.00 in0.0 mm 0.00 in0.0 mm 0.04 in1.0 mm
05:23 PM 70.5°F21.4°C 52.1°F11.2°C 52% 3.2 mph NE5.1 kmh NE 8.0 mph12.9 kmh 29.77 in1008.1 mb 0.00 in0.0 mm 0.00 in0.0 mm 0.04 in1.0 mm
05:28 PM 69.6°F20.9°C 52.3°F11.3°C 54% Calm Calm 5.8 mph9.3 kmh 29.77 in1008.1 mb 0.00 in0.0 mm 0.00 in0.0 mm 0.04 in1.0 mm
05:33 PM 69.4°F20.8°C 52.6°F11.4°C 55% 3.0 mph NE4.8 kmh NE 4.4 mph7.1 kmh 29.77 in1008.1 mb 0.00 in0.0 mm 0.00 in0.0 mm 0.04 in1.0 mm
05:39 PM 69.6°F20.9°C 53.3°F11.8°C 56% 2.9 mph SE4.7 kmh SE 4.4 mph7.1 kmh 29.77 in1008.1 mb 0.00 in0.0 mm 0.00 in0.0 mm 0.04 in1.0 mm
05:44 PM 69.4°F20.8°C 54.1°F12.3°C 58% 3.1 mph SE5.0 kmh SE 4.4 mph7.1 kmh 29.77 in1008.1 mb 0.00 in0.0 mm 0.00 in0.0 mm 0.04 in1.0 mm
05:49 PM 69.6°F20.9°C 53.3°F11.8°C 56% 2.8 mph SSE4.5 kmh SSE 4.4 mph7.1 kmh 29.77 in1008.1 mb 0.00 in0.0 mm 0.00 in0.0 mm 0.04 in1.0 mm
05:54 PM 69.8°F21.0°C 52.5°F11.4°C 54% 5.6 mph NNE9.0 kmh NNE 7.2 mph11.6 kmh 29.77 in1008.1 mb 0.00 in0.0 mm 0.00 in0.0 mm 0.04 in1.0 mm
06:00 PM 69.8°F21.0°C 52.5°F11.4°C 54% 3.8 mph S6.1 kmh S 7.2 mph11.6 kmh 29.77 in1008.1 mb 0.00 in0.0 mm 0.00 in0.0 mm 0.04 in1.0 mm
06:05 PM 69.6°F20.9°C 53.3°F11.8°C 56% 2.2 mph SE3.5 kmh SE 5.0 mph8.0 kmh 29.77 in1008.1 mb 0.00 in0.0 mm 0.00 in0.0 mm 0.04 in1.0 mm
06:10 PM 69.6°F20.9°C 52.3°F11.3°C 54% 3.9 mph NE6.3 kmh NE 5.8 mph9.3 kmh 29.77 in1008.1 mb 0.00 in0.0 mm 0.00 in0.0 mm 0.04 in1.0 mm
06:15 PM 69.2°F20.7°C 51.4°F10.8°C 53% Calm Calm 5.8 mph9.3 kmh 29.77 in1008.1 mb 0.00 in0.0 mm 0.00 in0.0 mm 0.04 in1.0 mm
06:21 PM 68.7°F20.4°C 51.5°F10.8°C 54% 2.5 mph ENE4.0 kmh ENE 3.2 mph5.1 kmh 29.77 in1008.1 mb 0.00 in0.0 mm 0.00 in0.0 mm 0.04 in1.0 mm
06:26 PM 68.0°F20.0°C 51.8°F11.0°C 56% 2.4 mph ENE3.9 kmh ENE 3.2 mph5.1 kmh 29.77 in1008.1 mb 0.00 in0.0 mm 0.00 in0.0 mm 0.04 in1.0 mm
06:31 PM 68.2°F20.1°C 52.5°F11.4°C 57% Calm Calm 2.6 mph4.2 kmh 29.77 in1008.1 mb 0.00 in0.0 mm 0.00 in0.0 mm 0.04 in1.0 mm
06:36 PM 68.5°F20.3°C 52.8°F11.6°C 57% Calm Calm -- 29.80 in1009.1 mb 0.00 in0.0 mm 0.00 in0.0 mm 0.04 in1.0 mm
06:42 PM 69.1°F20.6°C 52.8°F11.6°C 56% 2.3 mph NNE3.7 kmh NNE 4.0 mph6.4 kmh 29.80 in1009.1 mb 0.00 in0.0 mm 0.00 in0.0 mm 0.04 in1.0 mm
06:47 PM 68.9°F20.5°C 53.1°F11.7°C 57% Calm Calm 4.0 mph6.4 kmh 29.80 in1009.1 mb 0.00 in0.0 mm 0.00 in0.0 mm 0.04 in1.0 mm
06:53 PM 68.2°F20.1°C 51.5°F10.8°C 55% 4.2 mph NE6.8 kmh NE 5.0 mph8.0 kmh 29.77 in1008.1 mb 0.00 in0.0 mm 0.00 in0.0 mm 0.04 in1.0 mm
06:58 PM 67.8°F19.9°C 51.6°F10.9°C 56% 2.6 mph ESE4.2 kmh ESE 5.0 mph8.0 kmh 29.77 in1008.1 mb 0.00 in0.0 mm 0.00 in0.0 mm 0.04 in1.0 mm
07:03 PM 67.4°F19.7°C 51.7°F10.9°C 57% 4.0 mph ENE6.4 kmh ENE 4.0 mph6.4 kmh 29.77 in1008.1 mb 0.00 in0.0 mm 0.00 in0.0 mm 0.04 in1.0 mm
07:08 PM 67.1°F19.5°C 51.9°F11.1°C 58% Calm Calm 4.0 mph6.4 kmh 29.77 in1008.1 mb 0.00 in0.0 mm 0.00 in0.0 mm 0.04 in1.0 mm
07:13 PM 66.9°F19.4°C 51.7°F10.9°C 58% Calm Calm -- 29.77 in1008.1 mb 0.00 in0.0 mm 0.00 in0.0 mm 0.04 in1.0 mm
07:18 PM 66.5°F19.2°C 51.8°F11.0°C 59% 2.5 mph ESE4.0 kmh ESE 3.2 mph5.1 kmh 29.77 in1008.1 mb 0.00 in0.0 mm 0.00 in0.0 mm 0.04 in1.0 mm
07:25 PM 66.0°F18.9°C 52.3°F11.3°C 61% Calm Calm 3.2 mph5.1 kmh 29.80 in1009.1 mb 0.00 in0.0 mm 0.00 in0.0 mm 0.04 in1.0 mm
07:30 PM 65.6°F18.7°C 52.4°F11.3°C 62% Calm Calm -- 29.80 in1009.1 mb 0.00 in0.0 mm 0.00 in0.0 mm 0.04 in1.0 mm
07:35 PM 65.3°F18.5°C 52.1°F11.2°C 62% Calm Calm -- 29.77 in1008.1 mb 0.00 in0.0 mm 0.00 in0.0 mm 0.04 in1.0 mm
07:40 PM 64.7°F18.2°C 51.9°F11.1°C 63% Calm Calm -- 29.77 in1008.1 mb 0.00 in0.0 mm 0.00 in0.0 mm 0.04 in1.0 mm
07:45 PM 64.4°F18.0°C 52.1°F11.2°C 64% Calm Calm -- 29.77 in1008.1 mb 0.00 in0.0 mm 0.00 in0.0 mm 0.04 in1.0 mm
07:50 PM 63.8°F17.7°C 51.9°F11.1°C 65% Calm Calm -- 29.80 in1009.1 mb 0.00 in0.0 mm 0.00 in0.0 mm 0.04 in1.0 mm
07:55 PM 63.3°F17.4°C 51.9°F11.1°C 66% Calm Calm -- 29.80 in1009.1 mb 0.00 in0.0 mm 0.00 in0.0 mm 0.04 in1.0 mm
08:00 PM 62.8°F17.1°C 51.8°F11.0°C 67% Calm Calm -- 29.80 in1009.1 mb 0.00 in0.0 mm 0.00 in0.0 mm 0.04 in1.0 mm
08:05 PM 62.2°F16.8°C 52.4°F11.3°C 70% Calm Calm -- 29.80 in1009.1 mb 0.00 in0.0 mm 0.00 in0.0 mm 0.04 in1.0 mm
08:10 PM 61.5°F16.4°C 52.9°F11.6°C 73% Calm Calm -- 29.80 in1009.1 mb 0.00 in0.0 mm 0.00 in0.0 mm 0.04 in1.0 mm
08:17 PM 60.8°F16.0°C 52.6°F11.4°C 74% Calm Calm -- 29.80 in1009.1 mb 0.00 in0.0 mm 0.00 in0.0 mm 0.04 in1.0 mm
08:22 PM 60.4°F15.8°C 53.6°F12.0°C 78% Calm Calm -- 29.80 in1009.1 mb 0.00 in0.0 mm 0.00 in0.0 mm 0.04 in1.0 mm
08:28 PM 59.9°F15.5°C 52.7°F11.5°C 77% Calm Calm -- 29.80 in1009.1 mb 0.00 in0.0 mm 0.00 in0.0 mm 0.04 in1.0 mm
08:33 PM 59.4°F15.2°C 52.8°F11.6°C 79% Calm Calm -- 29.80 in1009.1 mb 0.00 in0.0 mm 0.00 in0.0 mm 0.04 in1.0 mm
08:38 PM 59.1°F15.1°C 53.2°F11.8°C 81% Calm Calm -- 29.80 in1009.1 mb 0.00 in0.0 mm 0.00 in0.0 mm 0.04 in1.0 mm
08:43 PM 58.7°F14.8°C 53.1°F11.7°C 82% Calm Calm -- 29.80 in1009.1 mb 0.00 in0.0 mm 0.00 in0.0 mm 0.04 in1.0 mm
08:52 PM 58.0°F14.4°C 52.8°F11.6°C 83% Calm Calm -- 29.80 in1009.1 mb 0.00 in0.0 mm 0.00 in0.0 mm 0.04 in1.0 mm
08:57 PM 57.8°F14.3°C 52.9°F11.6°C 84% Calm Calm -- 29.80 in1009.1 mb 0.00 in0.0 mm 0.00 in0.0 mm 0.04 in1.0 mm
09:02 PM 57.5°F14.2°C 52.6°F11.4°C 84% Calm Calm -- 29.80 in1009.1 mb 0.00 in0.0 mm 0.00 in0.0 mm 0.04 in1.0 mm
09:07 PM 57.3°F14.1°C 53.0°F11.7°C 86% Calm Calm -- 29.77 in1008.1 mb 0.00 in0.0 mm 0.00 in0.0 mm 0.04 in1.0 mm
09:12 PM 56.9°F13.8°C 52.6°F11.4°C 86% Calm Calm -- 29.77 in1008.1 mb 0.00 in0.0 mm 0.00 in0.0 mm 0.04 in1.0 mm
09:17 PM 56.7°F13.7°C 53.1°F11.7°C 88% Calm Calm -- 29.77 in1008.1 mb 0.00 in0.0 mm 0.00 in0.0 mm 0.04 in1.0 mm
09:23 PM 56.4°F13.6°C 53.1°F11.7°C 89% Calm Calm -- 29.80 in1009.1 mb 0.00 in0.0 mm 0.00 in0.0 mm 0.04 in1.0 mm
09:28 PM 56.2°F13.4°C 53.2°F11.8°C 90% Calm Calm -- 29.80 in1009.1 mb 0.00 in0.0 mm 0.00 in0.0 mm 0.04 in1.0 mm
09:33 PM 56.0°F13.3°C 53.3°F11.8°C 91% Calm Calm -- 29.80 in1009.1 mb 0.00 in0.0 mm 0.00 in0.0 mm 0.04 in1.0 mm
09:38 PM 55.8°F13.2°C 53.4°F11.9°C 92% Calm Calm -- 29.83 in1010.2 mb 0.00 in0.0 mm 0.00 in0.0 mm 0.04 in1.0 mm
09:43 PM 55.7°F13.2°C 53.6°F12.0°C 93% Calm Calm -- 29.83 in1010.2 mb 0.00 in0.0 mm 0.00 in0.0 mm 0.04 in1.0 mm
09:48 PM 55.3°F12.9°C 52.9°F11.6°C 92% Calm Calm -- 29.83 in1010.2 mb 0.00 in0.0 mm 0.00 in0.0 mm 0.04 in1.0 mm
09:53 PM 55.3°F12.9°C 53.2°F11.8°C 93% Calm Calm -- 29.83 in1010.2 mb 0.00 in0.0 mm 0.00 in0.0 mm 0.04 in1.0 mm
09:58 PM 55.1°F12.8°C 53.3°F11.8°C 94% Calm Calm -- 29.83 in1010.2 mb 0.00 in0.0 mm 0.00 in0.0 mm 0.04 in1.0 mm
10:03 PM 54.8°F12.7°C 53.0°F11.7°C 94% Calm Calm -- 29.83 in1010.2 mb 0.00 in0.0 mm 0.00 in0.0 mm 0.04 in1.0 mm
10:08 PM 54.9°F12.7°C 53.3°F11.8°C 95% Calm Calm -- 29.83 in1010.2 mb 0.00 in0.0 mm 0.00 in0.0 mm 0.04 in1.0 mm
10:14 PM 54.6°F12.6°C 53.6°F12.0°C 97% Calm Calm -- 29.83 in1010.2 mb 0.00 in0.0 mm 0.00 in0.0 mm 0.04 in1.0 mm
10:19 PM 54.4°F12.4°C 53.1°F11.7°C 96% Calm Calm -- 29.83 in1010.2 mb 0.00 in0.0 mm 0.00 in0.0 mm 0.04 in1.0 mm
10:24 PM 54.2°F12.3°C 52.9°F11.6°C 96% Calm Calm -- 29.85 in1010.8 mb 0.00 in0.0 mm 0.00 in0.0 mm 0.04 in1.0 mm
10:29 PM 54.0°F12.2°C 53.0°F11.7°C 97% Calm Calm -- 29.85 in1010.8 mb 0.00 in0.0 mm 0.00 in0.0 mm 0.04 in1.0 mm
10:35 PM 53.9°F12.2°C 52.6°F11.4°C 96% Calm Calm -- 29.85 in1010.8 mb 0.00 in0.0 mm 0.00 in0.0 mm 0.04 in1.0 mm
10:40 PM 53.7°F12.1°C 52.7°F11.5°C 97% Calm Calm -- 29.85 in1010.8 mb 0.00 in0.0 mm 0.00 in0.0 mm 0.04 in1.0 mm
10:45 PM 53.7°F12.1°C 53.0°F11.7°C 98% Calm Calm -- 29.85 in1010.8 mb 0.00 in0.0 mm 0.00 in0.0 mm 0.04 in1.0 mm
10:50 PM 53.5°F11.9°C 52.8°F11.6°C 98% Calm Calm -- 29.85 in1010.8 mb 0.00 in0.0 mm 0.00 in0.0 mm 0.04 in1.0 mm
10:55 PM 53.3°F11.8°C 52.6°F11.4°C 98% Calm Calm -- 29.85 in1010.8 mb 0.00 in0.0 mm 0.00 in0.0 mm 0.04 in1.0 mm
11:00 PM 53.3°F11.8°C 52.6°F11.4°C 98% Calm Calm -- 29.85 in1010.8 mb 0.00 in0.0 mm 0.00 in0.0 mm 0.04 in1.0 mm
11:05 PM 53.1°F11.7°C 52.4°F11.3°C 98% Calm Calm -- 29.85 in1010.8 mb 0.00 in0.0 mm 0.00 in0.0 mm 0.04 in1.0 mm
11:10 PM 53.1°F11.7°C 52.4°F11.3°C 98% Calm Calm -- 29.85 in1010.8 mb 0.00 in0.0 mm 0.00 in0.0 mm 0.04 in1.0 mm
11:15 PM 53.1°F11.7°C 52.4°F11.3°C 98% Calm Calm -- 29.85 in1010.8 mb 0.00 in0.0 mm 0.00 in0.0 mm 0.04 in1.0 mm
11:20 PM 53.0°F11.7°C 52.3°F11.3°C 98% Calm Calm 1.8 mph2.9 kmh 29.85 in1010.8 mb 0.00 in0.0 mm 0.00 in0.0 mm 0.04 in1.0 mm
11:25 PM 52.8°F11.6°C 52.1°F11.2°C 98% Calm Calm 1.8 mph2.9 kmh 29.85 in1010.8 mb 0.00 in0.0 mm 0.00 in0.0 mm 0.04 in1.0 mm
11:30 PM 52.8°F11.6°C 52.1°F11.2°C 98% Calm Calm -- 29.85 in1010.8 mb 0.00 in0.0 mm 0.00 in0.0 mm 0.04 in1.0 mm
11:35 PM 52.8°F11.6°C 52.1°F11.2°C 98% Calm Calm -- 29.85 in1010.8 mb 0.00 in0.0 mm 0.00 in0.0 mm 0.04 in1.0 mm
11:40 PM 52.6°F11.4°C 51.9°F11.1°C 98% Calm Calm -- 29.85 in1010.8 mb 0.00 in0.0 mm 0.00 in0.0 mm 0.04 in1.0 mm
11:46 PM 52.4°F11.3°C 51.7°F10.9°C 98% Calm Calm -- 29.85 in1010.8 mb 0.00 in0.0 mm 0.00 in0.0 mm 0.04 in1.0 mm
11:51 PM 52.2°F11.2°C 51.5°F10.8°C 98% Calm Calm -- 29.85 in1010.8 mb 0.00 in0.0 mm 0.00 in0.0 mm 0.04 in1.0 mm
11:56 PM 52.2°F11.2°C 51.5°F10.8°C 98% Calm Calm -- 29.85 in1010.8 mb 0.00 in0.0 mm 0.00 in0.0 mm 0.04 in1.0 mm